createdAt,value
2019-03-16T00:00:26.379Z,6.97
2019-03-16T00:02:55.261Z,6.95
2019-03-16T00:05:24.219Z,6.89
2019-03-16T00:07:53.220Z,6.83
2019-03-16T00:10:22.339Z,6.81
2019-03-16T00:12:51.381Z,6.84
2019-03-16T00:15:20.379Z,6.82
2019-03-16T00:17:49.419Z,6.77
2019-03-16T00:20:18.379Z,6.83
2019-03-16T00:22:47.459Z,6.85
2019-03-16T00:25:17.382Z,6.76
2019-03-16T00:27:46.460Z,6.77
2019-03-16T00:30:16.059Z,6.78
2019-03-16T00:32:45.140Z,6.73
2019-03-16T00:35:14.183Z,6.77
2019-03-16T00:37:43.180Z,6.68
2019-03-16T00:40:13.499Z,6.76
2019-03-16T00:42:42.541Z,6.83
2019-03-16T00:45:12.700Z,6.86
2019-03-16T00:47:41.579Z,6.80
2019-03-16T00:50:12.179Z,6.79
2019-03-16T00:52:41.445Z,6.86
2019-03-16T00:55:10.939Z,6.80
2019-03-16T00:57:40.021Z,6.81
2019-03-16T01:00:14.979Z,6.81
2019-03-16T01:02:44.183Z,6.73
2019-03-16T01:05:13.419Z,6.62
2019-03-16T01:07:42.780Z,6.77
2019-03-16T01:10:12.204Z,6.90
2019-03-16T01:12:41.219Z,7.04
2019-03-16T01:15:12.821Z,7.03
2019-03-16T01:17:41.780Z,7.02
2019-03-16T01:20:12.075Z,7.05
2019-03-16T01:22:41.178Z,7.15
2019-03-16T01:25:11.339Z,7.17
2019-03-16T01:27:40.178Z,7.29
2019-03-16T01:30:14.943Z,7.26
2019-03-16T01:32:44.063Z,7.06
2019-03-16T01:35:13.300Z,7.00
2019-03-16T01:37:42.419Z,7.09
2019-03-16T01:40:12.226Z,7.06
2019-03-16T01:42:41.219Z,7.08
2019-03-16T01:45:11.139Z,6.97
2019-03-16T01:47:40.221Z,7.07
2019-03-16T01:50:11.063Z,6.99
2019-03-16T01:52:40.317Z,6.81
2019-03-16T01:55:10.485Z,6.88
2019-03-16T01:57:39.539Z,6.82
2019-03-16T02:00:15.711Z,6.82
2019-03-16T02:02:54.980Z,6.65
2019-03-16T02:05:15.419Z,6.77
2019-03-16T02:07:44.303Z,6.69
2019-03-16T02:10:13.419Z,6.67
2019-03-16T02:12:42.459Z,6.75
2019-03-16T02:15:11.501Z,6.67
2019-03-16T02:17:40.458Z,6.58
2019-03-16T02:20:10.339Z,6.58
2019-03-16T02:22:39.381Z,6.67
2019-03-16T02:25:09.659Z,6.46
2019-03-16T02:27:38.699Z,6.47
2019-03-16T02:30:10.181Z,6.56
2019-03-16T02:32:39.231Z,6.50
2019-03-16T02:35:08.623Z,6.60
2019-03-16T02:37:37.579Z,6.50
2019-03-16T02:40:09.298Z,6.49
2019-03-16T02:42:38.191Z,6.57
2019-03-16T02:45:09.342Z,6.60
2019-03-16T02:47:38.342Z,6.50
2019-03-16T02:50:09.380Z,6.50
2019-03-16T02:52:38.460Z,6.53
2019-03-16T02:55:09.499Z,6.51
2019-03-16T02:57:38.469Z,6.59
2019-03-16T03:00:10.379Z,6.61
2019-03-16T03:02:39.421Z,6.56
2019-03-16T03:05:12.499Z,6.43
2019-03-16T03:07:41.460Z,6.35
2019-03-16T03:10:16.980Z,6.25
2019-03-16T03:12:46.066Z,6.30
2019-03-16T03:15:15.158Z,6.43
2019-03-16T03:17:44.182Z,6.29
2019-03-16T03:20:13.491Z,6.31
2019-03-16T03:22:42.418Z,6.27
2019-03-16T03:25:11.499Z,6.27
2019-03-16T03:27:40.491Z,6.19
2019-03-16T03:30:12.138Z,6.24
2019-03-16T03:32:41.193Z,6.31
2019-03-16T03:35:11.375Z,6.06
2019-03-16T03:37:40.459Z,6.06
2019-03-16T03:40:11.082Z,6.10
2019-03-16T03:42:40.062Z,6.19
2019-03-16T03:45:13.142Z,6.24
2019-03-16T03:47:42.184Z,6.14
2019-03-16T03:50:15.675Z,6.11
2019-03-16T03:52:44.618Z,6.11
2019-03-16T03:55:14.501Z,6.12
2019-03-16T03:57:43.618Z,6.05
2019-03-16T04:00:17.660Z,5.99
2019-03-16T04:02:46.865Z,5.88
2019-03-16T04:05:15.899Z,5.74
2019-03-16T04:07:45.058Z,5.81
2019-03-16T04:10:14.579Z,5.87
2019-03-16T04:12:43.619Z,5.90
2019-03-16T04:15:13.787Z,5.84
2019-03-16T04:17:43.080Z,5.90
2019-03-16T04:20:13.507Z,5.74
2019-03-16T04:22:42.745Z,5.81
2019-03-16T04:25:11.865Z,5.73
2019-03-16T04:27:40.739Z,5.74
2019-03-16T04:30:11.741Z,5.63
2019-03-16T04:32:40.866Z,5.65
2019-03-16T04:35:09.820Z,5.70
2019-03-16T04:37:38.699Z,5.72
2019-03-16T04:40:09.620Z,5.63
2019-03-16T04:42:38.659Z,5.75
2019-03-16T04:45:09.862Z,5.77
2019-03-16T04:47:38.902Z,5.63
2019-03-16T04:50:10.388Z,5.66
2019-03-16T04:52:39.418Z,5.59
2019-03-16T04:55:09.500Z,5.51
2019-03-16T04:57:38.499Z,5.58
2019-03-16T05:00:12.940Z,5.60
2019-03-16T05:02:41.908Z,5.67
2019-03-16T05:05:11.107Z,5.67
2019-03-16T05:07:39.978Z,5.64
2019-03-16T05:10:13.298Z,5.66
2019-03-16T05:12:42.338Z,5.68
2019-03-16T05:15:11.378Z,5.55
2019-03-16T05:17:40.344Z,5.64
2019-03-16T05:20:11.140Z,5.55
2019-03-16T05:22:40.020Z,5.45
2019-03-16T05:25:10.779Z,5.48
2019-03-16T05:27:39.899Z,5.61
2019-03-16T05:30:15.140Z,5.71
2019-03-16T05:32:44.185Z,5.63
2019-03-16T05:35:13.328Z,5.56
2019-03-16T05:37:42.339Z,5.60
2019-03-16T05:40:11.898Z,5.62
2019-03-16T05:42:40.819Z,5.61
2019-03-16T05:45:10.666Z,5.56
2019-03-16T05:47:39.623Z,5.65
2019-03-16T05:50:15.379Z,5.52
2019-03-16T05:52:44.315Z,5.57
2019-03-16T05:55:13.383Z,5.54
2019-03-16T05:57:42.379Z,5.62
2019-03-16T06:00:15.831Z,5.66
2019-03-16T06:02:44.906Z,5.70
2019-03-16T06:05:14.110Z,5.65
2019-03-16T06:07:43.139Z,5.72
2019-03-16T06:10:12.898Z,5.79
2019-03-16T06:12:41.866Z,5.72
2019-03-16T06:15:11.980Z,5.79
2019-03-16T06:17:41.105Z,5.76
2019-03-16T06:20:12.137Z,5.71
2019-03-16T06:22:41.148Z,5.77
2019-03-16T06:25:10.623Z,5.67
2019-03-16T06:27:39.490Z,5.75
2019-03-16T06:30:13.110Z,5.65
2019-03-16T06:32:42.017Z,5.70
2019-03-16T06:35:23.934Z,5.77
2019-03-16T06:37:41.779Z,5.81
2019-03-16T06:40:12.058Z,5.74
2019-03-16T06:42:41.105Z,5.69
2019-03-16T06:45:12.100Z,5.71
2019-03-16T06:47:41.099Z,5.63
2019-03-16T06:50:14.381Z,5.87
2019-03-16T06:52:43.259Z,5.83
2019-03-16T06:55:12.459Z,5.93
2019-03-16T06:57:41.421Z,5.87
2019-03-16T07:00:15.218Z,5.95
2019-03-16T07:02:43.447Z,6.03
2019-03-16T07:05:13.285Z,5.88
2019-03-16T07:07:42.298Z,5.95
2019-03-16T07:10:13.059Z,6.13
2019-03-16T07:12:42.178Z,6.11
2019-03-16T07:15:13.786Z,6.14
2019-03-16T07:17:42.906Z,6.19
2019-03-16T07:20:13.099Z,6.09
2019-03-16T07:22:42.139Z,6.06
2019-03-16T07:25:11.218Z,6.12
2019-03-16T07:27:40.219Z,6.04
2019-03-16T07:30:13.739Z,6.09
2019-03-16T07:32:42.780Z,6.23
2019-03-16T07:35:11.779Z,6.04
2019-03-16T07:37:40.779Z,6.05
2019-03-16T07:40:11.900Z,6.15
2019-03-16T07:42:40.979Z,6.05
2019-03-16T07:45:11.221Z,6.12
2019-03-16T07:47:40.436Z,6.03
2019-03-16T07:50:11.742Z,6.16
2019-03-16T07:52:40.739Z,6.16
2019-03-16T07:55:10.582Z,6.16
2019-03-16T07:57:40.825Z,6.16
2019-03-16T08:00:13.739Z,6.26
2019-03-16T08:02:42.694Z,6.31
2019-03-16T08:05:18.499Z,6.36
2019-03-16T08:07:42.462Z,6.44
2019-03-16T08:10:12.303Z,6.51
2019-03-16T08:12:41.219Z,6.49
2019-03-16T08:15:11.417Z,6.52
2019-03-16T08:17:40.461Z,6.43
2019-03-16T08:20:11.276Z,6.33
2019-03-16T08:22:40.301Z,6.56
2019-03-16T08:25:09.618Z,6.53
2019-03-16T08:27:38.498Z,6.65
2019-03-16T08:30:09.701Z,6.57
2019-03-16T08:32:38.661Z,6.66
2019-03-16T08:35:08.737Z,6.69
2019-03-16T08:37:37.815Z,6.86
2019-03-16T08:40:11.424Z,6.95
2019-03-16T08:42:40.418Z,7.03
2019-03-16T08:45:12.534Z,7.12
2019-03-16T08:47:41.422Z,7.19
2019-03-16T08:50:11.458Z,7.19
2019-03-16T08:52:40.300Z,7.04
2019-03-16T08:55:10.421Z,7.24
2019-03-16T08:57:39.459Z,7.56
2019-03-16T09:00:14.138Z,7.81
2019-03-16T09:02:43.075Z,7.45
2019-03-16T09:05:12.190Z,7.55
2019-03-16T09:07:41.102Z,7.74
2019-03-16T09:10:10.701Z,7.88
2019-03-16T09:12:40.047Z,7.82
2019-03-16T09:17:41.898Z,7.74
2019-03-16T09:20:11.059Z,7.78
2019-03-16T09:22:40.221Z,8.16
2019-03-16T09:25:12.101Z,8.20
2019-03-16T09:27:41.060Z,8.29
2019-03-16T09:30:12.666Z,8.84
2019-03-16T09:32:41.542Z,8.83
2019-03-16T09:35:10.580Z,8.52
2019-03-16T09:37:39.420Z,8.77
2019-03-16T09:40:10.425Z,8.79
2019-03-16T09:42:39.251Z,8.60
2019-03-16T09:45:12.257Z,8.79
2019-03-16T09:47:41.339Z,8.66
2019-03-16T09:50:11.142Z,9.07
2019-03-16T09:52:40.351Z,9.71
2019-03-16T09:55:11.024Z,9.87
2019-03-16T09:57:39.932Z,9.59
2019-03-16T10:00:17.256Z,9.32
2019-03-16T10:02:46.258Z,9.15
2019-03-16T10:05:15.306Z,9.17
2019-03-16T10:07:44.417Z,9.30
2019-03-16T10:10:14.660Z,9.57
2019-03-16T10:12:43.820Z,9.76
2019-03-16T10:15:14.062Z,9.79
2019-03-16T10:17:43.063Z,9.87
2019-03-16T10:20:13.539Z,10.20
2019-03-16T10:22:42.417Z,10.23
2019-03-16T10:25:12.337Z,10.28
2019-03-16T10:27:41.377Z,10.56
2019-03-16T10:30:13.456Z,10.58
2019-03-16T10:32:42.417Z,10.25
2019-03-16T10:35:11.577Z,9.89
2019-03-16T10:37:40.657Z,9.80
2019-03-16T10:40:11.977Z,10.06
2019-03-16T10:42:41.025Z,10.33
2019-03-16T10:45:11.419Z,10.67
2019-03-16T10:47:40.378Z,10.77
2019-03-16T10:50:13.978Z,11.00
2019-03-16T10:52:43.106Z,10.43
2019-03-16T10:55:12.265Z,10.94
2019-03-16T10:57:41.299Z,11.55
2019-03-16T11:00:15.602Z,11.86
2019-03-16T11:02:44.445Z,12.13
2019-03-16T11:05:13.537Z,11.56
2019-03-16T11:07:42.458Z,11.35
2019-03-16T11:10:15.058Z,11.48
2019-03-16T11:12:43.941Z,12.04
2019-03-16T11:15:14.417Z,11.48
2019-03-16T11:17:43.378Z,11.21
2019-03-16T11:20:15.219Z,11.22
2019-03-16T11:22:44.139Z,11.74
2019-03-16T11:25:13.260Z,11.95
2019-03-16T11:27:42.337Z,12.01
2019-03-16T11:30:14.138Z,12.09
2019-03-16T11:32:43.257Z,12.21
2019-03-16T11:35:12.700Z,12.23
2019-03-16T11:37:41.739Z,11.95
2019-03-16T11:40:15.897Z,11.81
2019-03-16T11:42:44.939Z,11.98
2019-03-16T11:45:16.906Z,12.15
2019-03-16T11:47:44.820Z,11.74
2019-03-16T11:50:13.901Z,11.75
2019-03-16T11:52:42.861Z,11.86
2019-03-16T11:55:11.824Z,12.02
2019-03-16T11:57:40.649Z,11.93
2019-03-16T12:00:12.338Z,10.99
2019-03-16T12:02:41.377Z,10.73
2019-03-16T12:05:11.577Z,10.31
2019-03-16T12:07:40.502Z,10.21
2019-03-16T12:10:13.978Z,10.74
2019-03-16T12:12:43.192Z,11.25
2019-03-16T12:15:13.304Z,11.57
2019-03-16T12:17:42.435Z,11.60
2019-03-16T12:20:18.311Z,11.81
2019-03-16T12:22:47.462Z,11.92
2019-03-16T12:25:16.498Z,11.65
2019-03-16T12:27:45.377Z,11.81
2019-03-16T12:30:16.218Z,11.91
2019-03-16T12:32:45.217Z,12.38
2019-03-16T12:35:14.580Z,12.87
2019-03-16T12:37:43.458Z,12.65
2019-03-16T12:40:16.019Z,13.12
2019-03-16T12:42:44.939Z,13.04
2019-03-16T12:45:15.862Z,12.52
2019-03-16T12:47:44.899Z,12.23
2019-03-16T12:50:13.981Z,11.72
2019-03-16T12:52:43.059Z,11.40
2019-03-16T12:55:13.220Z,11.11
2019-03-16T12:57:42.699Z,11.06
2019-03-16T13:00:14.100Z,11.19
2019-03-16T13:02:43.217Z,11.44
2019-03-16T13:05:12.459Z,11.64
2019-03-16T13:07:41.739Z,11.71
2019-03-16T13:10:15.862Z,12.09
2019-03-16T13:12:45.050Z,12.21
2019-03-16T13:15:14.338Z,12.25
2019-03-16T13:17:43.618Z,12.39
2019-03-16T13:20:16.581Z,12.53
2019-03-16T13:22:45.701Z,12.76
2019-03-16T13:25:14.977Z,12.47
2019-03-16T13:27:44.138Z,12.39
2019-03-16T13:30:15.296Z,12.91
2019-03-16T13:32:44.617Z,13.15
2019-03-16T13:35:13.859Z,13.20
2019-03-16T13:37:43.037Z,13.18
2019-03-16T13:40:17.137Z,12.93
2019-03-16T13:42:46.226Z,12.38
2019-03-16T13:45:15.659Z,12.72
2019-03-16T13:47:44.897Z,12.74
2019-03-16T13:50:19.140Z,12.22
2019-03-16T13:52:48.700Z,11.49
2019-03-16T13:55:18.113Z,11.83
2019-03-16T13:57:47.137Z,11.79
2019-03-16T14:00:21.483Z,11.35
2019-03-16T14:02:50.510Z,11.08
2019-03-16T14:05:19.661Z,11.10
2019-03-16T14:07:48.806Z,10.77
2019-03-16T14:10:20.339Z,10.77
2019-03-16T14:12:49.418Z,11.08
2019-03-16T14:15:18.778Z,11.35
2019-03-16T14:17:48.019Z,12.18
2019-03-16T14:20:17.377Z,12.03
2019-03-16T14:22:46.577Z,11.60
2019-03-16T14:25:15.700Z,11.17
2019-03-16T14:27:44.902Z,10.82
2019-03-16T14:30:34.850Z,10.68
2019-03-16T14:32:49.738Z,10.60
2019-03-16T14:35:18.899Z,11.00
2019-03-16T14:37:48.066Z,11.00
2019-03-16T14:40:17.469Z,10.64
2019-03-16T14:42:46.698Z,10.76
2019-03-16T14:45:17.020Z,10.62
2019-03-16T14:47:46.267Z,10.33
2019-03-16T14:50:23.137Z,10.21
2019-03-16T14:52:52.339Z,9.78
2019-03-16T14:55:21.540Z,9.53
2019-03-16T14:57:50.826Z,9.61
2019-03-16T15:00:20.258Z,9.41
2019-03-16T15:02:49.542Z,9.40
2019-03-16T15:05:18.737Z,9.34
2019-03-16T15:07:49.840Z,9.24
2019-03-16T15:10:19.421Z,9.07
2019-03-16T15:12:48.459Z,8.96
2019-03-16T15:15:21.781Z,9.01
2019-03-16T15:17:50.900Z,8.90
2019-03-16T15:20:20.139Z,8.89
2019-03-16T15:22:49.339Z,8.81
2019-03-16T15:25:18.540Z,8.84
2019-03-16T15:27:47.703Z,8.72
2019-03-16T15:30:19.139Z,8.66
2019-03-16T15:32:48.344Z,8.59
2019-03-16T15:35:17.663Z,8.59
2019-03-16T15:37:46.754Z,8.57
2019-03-16T15:40:16.540Z,8.46
2019-03-16T15:42:45.743Z,8.31
2019-03-16T15:45:26.459Z,8.36
2019-03-16T15:47:55.741Z,8.26
2019-03-16T15:50:25.527Z,8.35
2019-03-16T15:52:54.661Z,8.23
2019-03-16T15:55:23.937Z,8.21
2019-03-16T15:57:53.364Z,8.13
2019-03-16T16:00:22.659Z,8.17
2019-03-16T16:02:51.739Z,8.15
2019-03-16T16:05:20.937Z,7.95
2019-03-16T16:07:50.101Z,8.05
2019-03-16T16:10:20.177Z,8.06
2019-03-16T16:12:49.344Z,8.17
2019-03-16T16:15:18.618Z,8.12
2019-03-16T16:17:48.103Z,8.22
2019-03-16T16:20:18.440Z,8.23
2019-03-16T16:22:47.579Z,8.18
2019-03-16T16:25:16.977Z,8.06
2019-03-16T16:27:46.137Z,7.97
2019-03-16T16:30:22.137Z,7.97
2019-03-16T16:32:51.257Z,7.81
2019-03-16T16:35:20.418Z,7.74
2019-03-16T16:37:49.661Z,7.66
2019-03-16T16:40:22.025Z,7.49
2019-03-16T16:42:51.497Z,7.51
2019-03-16T16:45:20.663Z,7.38
2019-03-16T16:47:49.940Z,7.43
2019-03-16T16:50:21.140Z,7.56
2019-03-16T16:52:50.463Z,7.57
2019-03-16T16:55:19.624Z,7.41
2019-03-16T16:57:49.027Z,7.45
2019-03-16T17:00:22.619Z,7.31
2019-03-16T17:02:51.781Z,7.16
2019-03-16T17:05:20.859Z,7.17
2019-03-16T17:07:50.019Z,7.18
2019-03-16T17:10:19.339Z,7.00
2019-03-16T17:12:48.581Z,6.84
2019-03-16T17:15:20.658Z,6.68
2019-03-16T17:17:49.857Z,6.52
2019-03-16T17:20:19.140Z,6.61
2019-03-16T17:22:48.377Z,6.67
2019-03-16T17:25:17.458Z,6.64
2019-03-16T17:27:46.697Z,6.72
2019-03-16T17:30:29.585Z,6.61
2019-03-16T17:32:58.898Z,6.53
2019-03-16T17:35:28.057Z,6.83
2019-03-16T17:37:57.258Z,6.67
2019-03-16T17:40:26.458Z,6.70
2019-03-16T17:42:55.657Z,6.79
2019-03-16T17:45:24.932Z,6.92
2019-03-16T17:47:57.178Z,6.97
2019-03-16T17:50:26.537Z,7.10
2019-03-16T17:52:55.783Z,7.15
2019-03-16T17:55:25.585Z,7.28
2019-03-16T17:57:54.858Z,7.23
2019-03-16T18:00:24.182Z,7.11
2019-03-16T18:02:53.417Z,6.94
2019-03-16T18:05:22.577Z,6.80
2019-03-16T18:07:51.862Z,6.67
2019-03-16T18:10:20.977Z,6.53
2019-03-16T18:12:50.137Z,6.47
2019-03-16T18:15:20.511Z,6.48
2019-03-16T18:17:49.619Z,6.48
2019-03-16T18:20:19.459Z,6.41
2019-03-16T18:22:49.059Z,6.35
2019-03-16T18:25:18.583Z,6.28
2019-03-16T18:27:47.819Z,6.32
2019-03-16T18:30:24.779Z,6.28
2019-03-16T18:32:54.018Z,6.23
2019-03-16T18:35:23.218Z,6.21
2019-03-16T18:37:53.858Z,6.11
2019-03-16T18:40:23.098Z,6.15
2019-03-16T18:42:52.345Z,6.23
2019-03-16T18:45:32.738Z,6.46
2019-03-16T18:48:02.018Z,6.51
2019-03-16T18:50:31.299Z,6.21
2019-03-16T18:53:00.539Z,6.06
2019-03-16T18:55:29.657Z,5.96
2019-03-16T18:57:58.979Z,5.84
2019-03-16T19:00:28.052Z,5.80
2019-03-16T19:02:57.404Z,5.72
2019-03-16T19:05:26.619Z,5.75
2019-03-16T19:07:55.752Z,5.79
2019-03-16T19:10:25.778Z,5.82
2019-03-16T19:12:54.981Z,5.88
2019-03-16T19:15:24.301Z,5.95
2019-03-16T19:17:59.202Z,5.94
2019-03-16T19:20:25.337Z,5.95
2019-03-16T19:22:54.602Z,5.85
2019-03-16T19:25:24.057Z,5.90
2019-03-16T19:27:53.299Z,5.84
2019-03-16T19:30:22.582Z,5.97
2019-03-16T19:32:51.858Z,5.84
2019-03-16T19:35:21.097Z,5.99
2019-03-16T19:37:50.379Z,5.90
2019-03-16T19:40:24.458Z,5.75
2019-03-16T19:42:53.667Z,5.84
2019-03-16T19:45:22.859Z,5.89
2019-03-16T19:47:52.099Z,5.87
2019-03-16T19:50:21.418Z,5.82
2019-03-16T19:52:50.617Z,5.89
2019-03-16T19:55:19.944Z,5.74
2019-03-16T19:57:49.179Z,5.88
2019-03-16T20:00:19.825Z,5.83
2019-03-16T20:02:51.548Z,5.88
2019-03-16T20:05:21.496Z,5.81
2019-03-16T20:07:50.739Z,5.87
2019-03-16T20:10:20.645Z,5.96
2019-03-16T20:12:52.847Z,5.99
2019-03-16T20:15:20.857Z,5.99
2019-03-16T20:17:50.145Z,5.99
2019-03-16T20:20:19.417Z,6.04
2019-03-16T20:22:50.017Z,6.00
2019-03-16T20:25:19.300Z,6.01
2019-03-16T20:27:48.547Z,5.98
2019-03-16T20:30:26.618Z,5.98
2019-03-16T20:33:02.493Z,5.98
2019-03-16T20:35:19.941Z,6.06
2019-03-16T20:37:49.221Z,6.02
2019-03-16T20:40:18.498Z,6.02
2019-03-16T20:42:47.777Z,6.00
2019-03-16T20:45:17.129Z,6.02
2019-03-16T20:47:46.467Z,6.00
2019-03-16T20:50:19.377Z,6.08
2019-03-16T20:52:48.618Z,6.05
2019-03-16T20:55:17.817Z,6.05
2019-03-16T20:57:47.212Z,6.04
2019-03-16T21:00:17.737Z,6.01
2019-03-16T21:02:47.168Z,6.07
2019-03-16T21:05:16.539Z,6.16
2019-03-16T21:07:45.820Z,6.14
2019-03-16T21:10:15.419Z,6.06
2019-03-16T21:12:44.681Z,6.14
2019-03-16T21:15:16.097Z,6.14
2019-03-16T21:17:45.301Z,6.14
2019-03-16T21:20:15.902Z,6.18
2019-03-16T21:22:45.258Z,6.19
2019-03-16T21:25:15.500Z,6.20
2019-03-16T21:27:44.667Z,6.24
2019-03-16T21:30:16.341Z,6.27
2019-03-16T21:32:45.579Z,6.28
2019-03-16T21:35:14.885Z,6.30
2019-03-16T21:37:44.059Z,6.34
2019-03-16T21:40:14.946Z,6.37
2019-03-16T21:42:44.178Z,6.38
2019-03-16T21:45:14.014Z,6.42
2019-03-16T21:47:44.019Z,6.48
2019-03-16T21:50:15.217Z,6.45
2019-03-16T21:52:45.049Z,6.50
2019-03-16T21:55:15.019Z,6.53
2019-03-16T21:57:44.180Z,6.54
2019-03-16T22:00:17.742Z,6.56
2019-03-16T22:02:46.979Z,6.58
2019-03-16T22:05:16.059Z,6.62
2019-03-16T22:07:45.396Z,6.63
2019-03-16T22:10:17.864Z,6.64
2019-03-16T22:12:46.857Z,6.70
2019-03-16T22:15:16.820Z,6.68
2019-03-16T22:17:45.783Z,6.68
2019-03-16T22:20:21.779Z,6.69
2019-03-16T22:22:50.822Z,6.74
2019-03-16T22:25:19.816Z,6.74
2019-03-16T22:27:51.539Z,6.77
2019-03-16T22:30:19.463Z,6.80
2019-03-16T22:32:48.443Z,6.84
2019-03-16T22:35:17.378Z,6.89
2019-03-16T22:37:46.418Z,6.85
2019-03-16T22:40:15.818Z,6.93
2019-03-16T22:42:44.972Z,6.92
2019-03-16T22:45:14.861Z,7.06
2019-03-16T22:47:43.860Z,7.08
2019-03-16T22:50:22.977Z,7.06
2019-03-16T22:52:51.858Z,7.05
2019-03-16T22:55:20.739Z,7.00
2019-03-16T22:57:49.698Z,6.93
2019-03-16T23:00:30.900Z,6.89
2019-03-16T23:02:59.779Z,6.89
2019-03-16T23:05:28.702Z,6.92
2019-03-16T23:07:57.697Z,6.94
2019-03-16T23:10:26.603Z,6.98
2019-03-16T23:12:55.699Z,7.06
2019-03-16T23:15:26.974Z,7.10
2019-03-16T23:17:55.858Z,7.10
2019-03-16T23:20:24.857Z,7.22
2019-03-16T23:22:53.858Z,7.28
2019-03-16T23:25:22.779Z,7.33
2019-03-16T23:27:51.797Z,7.34
2019-03-16T23:30:20.698Z,7.37
2019-03-16T23:32:49.617Z,7.36
2019-03-16T23:35:18.539Z,7.34
2019-03-16T23:37:47.618Z,7.36
2019-03-16T23:40:16.698Z,7.29
2019-03-16T23:42:45.618Z,7.38
2019-03-16T23:45:15.060Z,7.34
2019-03-16T23:47:44.137Z,7.08
2019-03-16T23:50:14.305Z,7.16
2019-03-16T23:52:43.344Z,7.33
2019-03-16T23:55:12.618Z,7.38
2019-03-16T23:57:41.660Z,7.39
